sensor_id;sensor_type;location;lat;lon;timestamp;P1;durP1;ratioP1;P2;durP2;ratioP2
38785;SDS011;24535;45.508;12.252;2024-01-10T00:41:02;9.77;;;7.38;;
38785;SDS011;24535;45.508;12.252;2024-01-10T00:43:28;11.45;;;8.25;;
38785;SDS011;24535;45.508;12.252;2024-01-10T00:45:53;11.43;;;8.10;;
38785;SDS011;24535;45.508;12.252;2024-01-10T00:48:19;10.32;;;7.88;;
38785;SDS011;24535;45.508;12.252;2024-01-10T00:50:44;12.20;;;7.95;;
38785;SDS011;24535;45.508;12.252;2024-01-10T00:53:10;9.65;;;8.10;;
38785;SDS011;24535;45.508;12.252;2024-01-10T00:55:36;12.07;;;7.68;;
38785;SDS011;24535;45.508;12.252;2024-01-10T00:58:01;10.25;;;7.82;;
38785;SDS011;24535;45.508;12.252;2024-01-10T01:00:27;11.80;;;8.10;;
38785;SDS011;24535;45.508;12.252;2024-01-10T01:02:52;11.35;;;7.85;;
38785;SDS011;24535;45.508;12.252;2024-01-10T01:05:18;8.93;;;7.25;;
38785;SDS011;24535;45.508;12.252;2024-01-10T01:07:43;12.10;;;8.07;;
38785;SDS011;24535;45.508;12.252;2024-01-10T01:10:09;10.55;;;8.00;;
38785;SDS011;24535;45.508;12.252;2024-01-10T01:12:34;9.77;;;7.55;;
38785;SDS011;24535;45.508;12.252;2024-01-10T01:15:00;10.65;;;7.75;;
38785;SDS011;24535;45.508;12.252;2024-01-10T01:17:25;9.95;;;8.02;;
38785;SDS011;24535;45.508;12.252;2024-01-10T01:19:51;11.10;;;8.30;;
38785;SDS011;24535;45.508;12.252;2024-01-10T01:22:16;8.88;;;7.05;;
38785;SDS011;24535;45.508;12.252;2024-01-10T01:41:11;10.07;;;7.75;;
38785;SDS011;24535;45.508;12.252;2024-01-10T01:43:37;12.20;;;7.85;;
38785;SDS011;24535;45.508;12.252;2024-01-10T01:46:02;11.18;;;8.23;;
38785;SDS011;24535;45.508;12.252;2024-01-10T01:48:28;9.18;;;7.82;;
38785;SDS011;24535;45.508;12.252;2024-01-10T01:50:57;13.68;;;8.30;;
38785;SDS011;24535;45.508;12.252;2024-01-10T01:53:27;13.40;;;8.63;;
38785;SDS011;24535;45.508;12.252;2024-01-10T01:55:56;9.93;;;7.80;;
38785;SDS011;24535;45.508;12.252;2024-01-10T01:58:28;10.95;;;7.55;;
38785;SDS011;24535;45.508;12.252;2024-01-10T02:00:54;9.75;;;7.47;;
38785;SDS011;24535;45.508;12.252;2024-01-10T02:03:20;10.50;;;7.85;;
38785;SDS011;24535;45.508;12.252;2024-01-10T02:05:46;11.93;;;8.73;;
38785;SDS011;24535;45.508;12.252;2024-01-10T02:08:12;12.50;;;7.65;;
38785;SDS011;24535;45.508;12.252;2024-01-10T02:10:38;10.95;;;7.65;;
38785;SDS011;24535;45.508;12.252;2024-01-10T02:13:04;10.55;;;7.75;;
38785;SDS011;24535;45.508;12.252;2024-01-10T02:15:30;11.25;;;8.20;;
38785;SDS011;24535;45.508;12.252;2024-01-10T02:17:56;8.32;;;7.40;;
38785;SDS011;24535;45.508;12.252;2024-01-10T02:20:31;10.70;;;7.85;;
38785;SDS011;24535;45.508;12.252;2024-01-10T02:25:46;12.50;;;8.07;;
38785;SDS011;24535;45.508;12.252;2024-01-10T02:28:12;12.00;;;7.97;;
38785;SDS011;24535;45.508;12.252;2024-01-10T02:30:37;10.60;;;7.35;;
38785;SDS011;24535;45.508;12.252;2024-01-10T02:33:03;7.47;;;6.72;;
38785;SDS011;24535;45.508;12.252;2024-01-10T02:35:29;10.50;;;8.00;;
38785;SDS011;24535;45.508;12.252;2024-01-10T02:37:57;9.60;;;7.50;;
38785;SDS011;24535;45.508;12.252;2024-01-10T02:40:23;10.27;;;7.18;;
38785;SDS011;24535;45.508;12.252;2024-01-10T02:42:48;10.30;;;7.88;;
38785;SDS011;24535;45.508;12.252;2024-01-10T02:45:16;10.85;;;7.88;;
38785;SDS011;24535;45.508;12.252;2024-01-10T02:47:42;9.57;;;7.32;;
38785;SDS011;24535;45.508;12.252;2024-01-10T02:50:07;10.13;;;7.18;;
38785;SDS011;24535;45.508;12.252;2024-01-10T02:52:33;10.00;;;6.95;;
38785;SDS011;24535;45.508;12.252;2024-01-10T02:54:58;8.80;;;6.95;;
38785;SDS011;24535;45.508;12.252;2024-01-10T02:57:24;10.18;;;8.15;;
38785;SDS011;24535;45.508;12.252;2024-01-10T02:59:49;10.43;;;7.60;;
38785;SDS011;24535;45.508;12.252;2024-01-10T03:02:15;10.25;;;7.28;;
38785;SDS011;24535;45.508;12.252;2024-01-10T03:04:41;10.23;;;7.18;;
38785;SDS011;24535;45.508;12.252;2024-01-10T03:07:07;8.30;;;6.85;;
38785;SDS011;24535;45.508;12.252;2024-01-10T03:09:32;8.15;;;6.70;;
38785;SDS011;24535;45.508;12.252;2024-01-10T03:41:31;9.52;;;7.50;;
38785;SDS011;24535;45.508;12.252;2024-01-10T03:47:20;12.73;;;7.65;;
38785;SDS011;24535;45.508;12.252;2024-01-10T03:49:48;10.90;;;7.72;;
38785;SDS011;24535;45.508;12.252;2024-01-10T03:52:14;11.00;;;7.78;;
38785;SDS011;24535;45.508;12.252;2024-01-10T03:54:39;11.18;;;7.22;;
38785;SDS011;24535;45.508;12.252;2024-01-10T03:57:05;8.27;;;7.25;;
38785;SDS011;24535;45.508;12.252;2024-01-10T03:59:37;11.93;;;8.60;;
38785;SDS011;24535;45.508;12.252;2024-01-10T04:02:02;10.65;;;7.53;;
38785;SDS011;24535;45.508;12.252;2024-01-10T04:04:28;10.73;;;7.32;;
38785;SDS011;24535;45.508;12.252;2024-01-10T04:06:54;15.18;;;8.48;;
38785;SDS011;24535;45.508;12.252;2024-01-10T04:20:32;11.45;;;8.50;;
38785;SDS011;24535;45.508;12.252;2024-01-10T04:22:58;11.70;;;8.47;;
38785;SDS011;24535;45.508;12.252;2024-01-10T04:25:23;11.20;;;8.05;;
38785;SDS011;24535;45.508;12.252;2024-01-10T04:27:49;11.32;;;7.55;;
38785;SDS011;24535;45.508;12.252;2024-01-10T04:30:15;12.43;;;8.88;;
38785;SDS011;24535;45.508;12.252;2024-01-10T04:32:41;11.90;;;8.75;;
38785;SDS011;24535;45.508;12.252;2024-01-10T04:35:06;10.65;;;8.50;;
38785;SDS011;24535;45.508;12.252;2024-01-10T04:37:32;12.95;;;8.68;;
38785;SDS011;24535;45.508;12.252;2024-01-10T04:39:57;11.98;;;8.82;;
38785;SDS011;24535;45.508;12.252;2024-01-10T04:42:23;11.63;;;8.77;;
38785;SDS011;24535;45.508;12.252;2024-01-10T04:44:48;9.02;;;7.05;;
38785;SDS011;24535;45.508;12.252;2024-01-10T04:47:14;10.82;;;7.93;;
38785;SDS011;24535;45.508;12.252;2024-01-10T04:49:40;9.82;;;7.93;;
38785;SDS011;24535;45.508;12.252;2024-01-10T04:52:06;11.60;;;8.27;;
38785;SDS011;24535;45.508;12.252;2024-01-10T04:54:31;11.60;;;8.40;;
38785;SDS011;24535;45.508;12.252;2024-01-10T04:56:56;10.73;;;8.38;;
38785;SDS011;24535;45.508;12.252;2024-01-10T04:59:22;11.68;;;8.82;;
38785;SDS011;24535;45.508;12.252;2024-01-10T05:01:47;12.73;;;8.73;;
38785;SDS011;24535;45.508;12.252;2024-01-10T05:04:13;11.32;;;8.93;;
38785;SDS011;24535;45.508;12.252;2024-01-10T05:06:39;10.07;;;8.27;;
38785;SDS011;24535;45.508;12.252;2024-01-10T05:09:04;12.07;;;8.43;;
38785;SDS011;24535;45.508;12.252;2024-01-10T05:11:31;10.95;;;8.02;;
38785;SDS011;24535;45.508;12.252;2024-01-10T05:13:57;12.90;;;7.95;;
38785;SDS011;24535;45.508;12.252;2024-01-10T05:16:22;11.45;;;8.07;;
38785;SDS011;24535;45.508;12.252;2024-01-10T05:18:48;12.25;;;8.65;;
38785;SDS011;24535;45.508;12.252;2024-01-10T05:21:13;12.13;;;8.10;;
38785;SDS011;24535;45.508;12.252;2024-01-10T05:23:41;9.68;;;7.63;;
38785;SDS011;24535;45.508;12.252;2024-01-10T05:26:07;10.52;;;7.57;;
38785;SDS011;24535;45.508;12.252;2024-01-10T05:28:35;10.88;;;8.50;;
38785;SDS011;24535;45.508;12.252;2024-01-10T05:31:03;13.07;;;8.95;;
38785;SDS011;24535;45.508;12.252;2024-01-10T05:33:29;9.30;;;8.13;;
38785;SDS011;24535;45.508;12.252;2024-01-10T05:35:57;11.35;;;7.85;;
38785;SDS011;24535;45.508;12.252;2024-01-10T05:38:23;11.38;;;7.97;;
38785;SDS011;24535;45.508;12.252;2024-01-10T05:40:49;11.75;;;8.10;;
38785;SDS011;24535;45.508;12.252;2024-01-10T05:43:14;11.65;;;7.90;;
38785;SDS011;24535;45.508;12.252;2024-01-10T05:45:40;12.05;;;8.48;;
38785;SDS011;24535;45.508;12.252;2024-01-10T05:48:06;13.05;;;9.10;;
38785;SDS011;24535;45.508;12.252;2024-01-10T05:50:31;9.55;;;8.30;;
38785;SDS011;24535;45.508;12.252;2024-01-10T05:52:57;11.15;;;8.18;;
38785;SDS011;24535;45.508;12.252;2024-01-10T05:55:22;10.77;;;8.18;;
38785;SDS011;24535;45.508;12.252;2024-01-10T05:57:48;10.82;;;7.95;;
38785;SDS011;24535;45.508;12.252;2024-01-10T06:00:14;12.52;;;9.00;;
38785;SDS011;24535;45.508;12.252;2024-01-10T06:02:41;12.00;;;8.73;;
38785;SDS011;24535;45.508;12.252;2024-01-10T06:05:08;11.73;;;8.38;;
38785;SDS011;24535;45.508;12.252;2024-01-10T06:07:35;10.25;;;8.32;;
38785;SDS011;24535;45.508;12.252;2024-01-10T06:10:01;12.20;;;8.95;;
38785;SDS011;24535;45.508;12.252;2024-01-10T06:12:29;12.25;;;9.30;;
38785;SDS011;24535;45.508;12.252;2024-01-10T06:14:55;12.00;;;8.38;;
38785;SDS011;24535;45.508;12.252;2024-01-10T06:17:20;10.60;;;9.05;;
38785;SDS011;24535;45.508;12.252;2024-01-10T06:19:46;13.20;;;8.75;;
38785;SDS011;24535;45.508;12.252;2024-01-10T06:22:12;13.52;;;8.57;;
38785;SDS011;24535;45.508;12.252;2024-01-10T06:24:46;10.73;;;7.78;;
38785;SDS011;24535;45.508;12.252;2024-01-10T06:27:17;13.20;;;8.73;;
38785;SDS011;24535;45.508;12.252;2024-01-10T06:30:08;11.75;;;9.50;;
38785;SDS011;24535;45.508;12.252;2024-01-10T06:32:34;12.75;;;9.45;;
38785;SDS011;24535;45.508;12.252;2024-01-10T06:35:00;10.88;;;8.50;;
38785;SDS011;24535;45.508;12.252;2024-01-10T06:40:48;13.10;;;9.30;;
38785;SDS011;24535;45.508;12.252;2024-01-10T06:43:14;14.88;;;9.55;;
38785;SDS011;24535;45.508;12.252;2024-01-10T06:45:42;11.65;;;9.43;;
38785;SDS011;24535;45.508;12.252;2024-01-10T06:48:08;12.13;;;9.45;;
38785;SDS011;24535;45.508;12.252;2024-01-10T06:50:34;12.27;;;8.93;;
38785;SDS011;24535;45.508;12.252;2024-01-10T06:52:59;13.10;;;9.38;;
38785;SDS011;24535;45.508;12.252;2024-01-10T06:55:25;13.73;;;9.43;;
38785;SDS011;24535;45.508;12.252;2024-01-10T06:57:51;13.85;;;9.98;;
38785;SDS011;24535;45.508;12.252;2024-01-10T07:00:19;13.13;;;9.18;;
38785;SDS011;24535;45.508;12.252;2024-01-10T07:02:46;10.13;;;8.52;;
38785;SDS011;24535;45.508;12.252;2024-01-10T07:05:11;13.05;;;8.93;;
38785;SDS011;24535;45.508;12.252;2024-01-10T07:07:37;14.85;;;9.55;;
38785;SDS011;24535;45.508;12.252;2024-01-10T07:10:02;13.93;;;9.25;;
38785;SDS011;24535;45.508;12.252;2024-01-10T07:12:35;10.77;;;8.35;;
38785;SDS011;24535;45.508;12.252;2024-01-10T07:15:00;12.90;;;8.60;;
38785;SDS011;24535;45.508;12.252;2024-01-10T07:17:28;13.27;;;9.32;;
38785;SDS011;24535;45.508;12.252;2024-01-10T07:19:53;13.77;;;9.25;;
38785;SDS011;24535;45.508;12.252;2024-01-10T07:24:59;10.82;;;8.88;;
38785;SDS011;24535;45.508;12.252;2024-01-10T07:27:25;11.98;;;8.55;;
38785;SDS011;24535;45.508;12.252;2024-01-10T07:32:26;12.23;;;9.80;;
38785;SDS011;24535;45.508;12.252;2024-01-10T07:34:51;12.77;;;9.45;;
38785;SDS011;24535;45.508;12.252;2024-01-10T07:37:16;12.13;;;9.23;;
38785;SDS011;24535;45.508;12.252;2024-01-10T07:39:45;12.27;;;8.88;;
38785;SDS011;24535;45.508;12.252;2024-01-10T07:42:14;13.52;;;8.90;;
38785;SDS011;24535;45.508;12.252;2024-01-10T07:44:40;13.87;;;10.30;;
38785;SDS011;24535;45.508;12.252;2024-01-10T07:47:08;14.80;;;9.82;;
38785;SDS011;24535;45.508;12.252;2024-01-10T07:49:38;11.90;;;8.93;;
38785;SDS011;24535;45.508;12.252;2024-01-10T07:52:04;12.50;;;9.40;;
38785;SDS011;24535;45.508;12.252;2024-01-10T07:54:29;15.52;;;10.07;;
38785;SDS011;24535;45.508;12.252;2024-01-10T07:57:04;14.23;;;10.30;;
38785;SDS011;24535;45.508;12.252;2024-01-10T07:59:31;12.07;;;9.82;;
38785;SDS011;24535;45.508;12.252;2024-01-10T08:01:59;13.40;;;8.93;;
38785;SDS011;24535;45.508;12.252;2024-01-10T08:04:26;14.70;;;10.30;;
38785;SDS011;24535;45.508;12.252;2024-01-10T08:06:52;14.20;;;10.30;;
38785;SDS011;24535;45.508;12.252;2024-01-10T08:09:18;13.38;;;10.10;;
38785;SDS011;24535;45.508;12.252;2024-01-10T08:11:44;11.60;;;9.32;;
38785;SDS011;24535;45.508;12.252;2024-01-10T08:14:10;13.27;;;9.93;;
38785;SDS011;24535;45.508;12.252;2024-01-10T08:16:39;13.35;;;9.40;;
38785;SDS011;24535;45.508;12.252;2024-01-10T08:19:08;13.20;;;10.32;;
38785;SDS011;24535;45.508;12.252;2024-01-10T08:21:33;12.80;;;10.07;;
38785;SDS011;24535;45.508;12.252;2024-01-10T08:23:59;15.75;;;11.02;;
38785;SDS011;24535;45.508;12.252;2024-01-10T08:26:27;14.73;;;10.15;;
38785;SDS011;24535;45.508;12.252;2024-01-10T08:28:52;15.82;;;10.88;;
38785;SDS011;24535;45.508;12.252;2024-01-10T08:31:18;11.65;;;10.02;;
38785;SDS011;24535;45.508;12.252;2024-01-10T08:33:43;14.13;;;10.48;;
38785;SDS011;24535;45.508;12.252;2024-01-10T08:36:10;14.48;;;9.60;;
38785;SDS011;24535;45.508;12.252;2024-01-10T08:38:35;11.65;;;9.38;;
38785;SDS011;24535;45.508;12.252;2024-01-10T08:41:01;15.23;;;9.68;;
38785;SDS011;24535;45.508;12.252;2024-01-10T08:43:29;12.48;;;9.48;;
38785;SDS011;24535;45.508;12.252;2024-01-10T08:45:55;14.55;;;10.23;;
38785;SDS011;24535;45.508;12.252;2024-01-10T08:48:23;14.55;;;10.23;;
38785;SDS011;24535;45.508;12.252;2024-01-10T08:50:50;14.32;;;9.75;;
38785;SDS011;24535;45.508;12.252;2024-01-10T08:53:16;14.52;;;9.93;;
38785;SDS011;24535;45.508;12.252;2024-01-10T08:55:41;10.90;;;9.05;;
38785;SDS011;24535;45.508;12.252;2024-01-10T08:58:07;11.65;;;9.10;;
38785;SDS011;24535;45.508;12.252;2024-01-10T09:00:33;12.13;;;9.65;;
38785;SDS011;24535;45.508;12.252;2024-01-10T09:02:59;14.48;;;9.63;;
38785;SDS011;24535;45.508;12.252;2024-01-10T09:05:25;14.75;;;10.82;;
38785;SDS011;24535;45.508;12.252;2024-01-10T09:07:51;13.90;;;9.82;;
38785;SDS011;24535;45.508;12.252;2024-01-10T09:10:18;14.30;;;10.43;;
38785;SDS011;24535;45.508;12.252;2024-01-10T09:12:46;15.48;;;10.55;;
38785;SDS011;24535;45.508;12.252;2024-01-10T09:15:12;11.85;;;9.95;;
38785;SDS011;24535;45.508;12.252;2024-01-10T09:17:39;13.25;;;10.18;;
38785;SDS011;24535;45.508;12.252;2024-01-10T09:20:06;19.38;;;11.30;;
38785;SDS011;24535;45.508;12.252;2024-01-10T09:22:33;14.88;;;9.68;;
38785;SDS011;24535;45.508;12.252;2024-01-10T09:24:59;13.93;;;10.73;;
38785;SDS011;24535;45.508;12.252;2024-01-10T09:27:28;14.43;;;9.98;;
38785;SDS011;24535;45.508;12.252;2024-01-10T09:29:55;11.10;;;8.93;;
38785;SDS011;24535;45.508;12.252;2024-01-10T09:32:20;13.57;;;10.00;;
38785;SDS011;24535;45.508;12.252;2024-01-10T09:34:47;15.80;;;10.27;;
38785;SDS011;24535;45.508;12.252;2024-01-10T09:37:12;14.43;;;9.95;;
38785;SDS011;24535;45.508;12.252;2024-01-10T09:39:38;15.52;;;10.30;;
38785;SDS011;24535;45.508;12.252;2024-01-10T09:42:03;13.15;;;9.38;;
38785;SDS011;24535;45.508;12.252;2024-01-10T09:44:29;12.65;;;9.73;;
38785;SDS011;24535;45.508;12.252;2024-01-10T09:46:54;15.27;;;10.45;;
38785;SDS011;24535;45.508;12.252;2024-01-10T09:49:20;13.50;;;10.05;;
38785;SDS011;24535;45.508;12.252;2024-01-10T09:51:48;15.30;;;10.77;;
38785;SDS011;24535;45.508;12.252;2024-01-10T09:54:14;14.90;;;10.98;;
38785;SDS011;24535;45.508;12.252;2024-01-10T09:56:45;13.48;;;10.52;;
38785;SDS011;24535;45.508;12.252;2024-01-10T09:59:10;14.10;;;10.43;;
38785;SDS011;24535;45.508;12.252;2024-01-10T10:01:36;14.77;;;10.13;;
38785;SDS011;24535;45.508;12.252;2024-01-10T10:04:04;16.63;;;11.25;;
38785;SDS011;24535;45.508;12.252;2024-01-10T10:06:32;17.38;;;10.70;;
38785;SDS011;24535;45.508;12.252;2024-01-10T10:08:59;16.23;;;10.85;;
38785;SDS011;24535;45.508;12.252;2024-01-10T10:11:24;15.43;;;11.43;;
38785;SDS011;24535;45.508;12.252;2024-01-10T10:13:50;14.23;;;10.55;;
38785;SDS011;24535;45.508;12.252;2024-01-10T10:16:22;14.65;;;11.38;;
38785;SDS011;24535;45.508;12.252;2024-01-10T10:18:51;12.63;;;9.45;;
38785;SDS011;24535;45.508;12.252;2024-01-10T10:21:24;14.25;;;10.45;;
38785;SDS011;24535;45.508;12.252;2024-01-10T10:23:58;14.48;;;10.80;;
38785;SDS011;24535;45.508;12.252;2024-01-10T10:26:26;15.65;;;11.52;;
38785;SDS011;24535;45.508;12.252;2024-01-10T10:28:52;14.77;;;11.05;;
38785;SDS011;24535;45.508;12.252;2024-01-10T10:31:19;12.95;;;10.57;;
38785;SDS011;24535;45.508;12.252;2024-01-10T10:33:45;15.10;;;10.90;;
38785;SDS011;24535;45.508;12.252;2024-01-10T10:36:13;18.70;;;10.88;;
38785;SDS011;24535;45.508;12.252;2024-01-10T10:38:39;15.80;;;10.73;;
38785;SDS011;24535;45.508;12.252;2024-01-10T10:41:06;15.07;;;10.57;;
38785;SDS011;24535;45.508;12.252;2024-01-10T10:43:43;14.48;;;10.57;;
38785;SDS011;24535;45.508;12.252;2024-01-10T10:46:09;13.48;;;10.63;;
38785;SDS011;24535;45.508;12.252;2024-01-10T10:48:39;14.43;;;10.27;;
38785;SDS011;24535;45.508;12.252;2024-01-10T10:51:06;14.57;;;10.80;;
38785;SDS011;24535;45.508;12.252;2024-01-10T10:53:35;15.15;;;10.55;;
38785;SDS011;24535;45.508;12.252;2024-01-10T10:56:04;15.15;;;10.50;;
38785;SDS011;24535;45.508;12.252;2024-01-10T10:58:36;18.73;;;12.23;;
38785;SDS011;24535;45.508;12.252;2024-01-10T11:01:04;14.52;;;10.38;;
38785;SDS011;24535;45.508;12.252;2024-01-10T11:03:39;15.80;;;11.10;;
38785;SDS011;24535;45.508;12.252;2024-01-10T11:06:05;18.05;;;11.88;;
38785;SDS011;24535;45.508;12.252;2024-01-10T11:08:33;19.35;;;12.80;;
38785;SDS011;24535;45.508;12.252;2024-01-10T11:11:02;15.25;;;11.27;;
38785;SDS011;24535;45.508;12.252;2024-01-10T11:18:54;16.83;;;10.63;;
38785;SDS011;24535;45.508;12.252;2024-01-10T11:24:27;14.98;;;9.95;;
38785;SDS011;24535;45.508;12.252;2024-01-10T11:27:12;15.02;;;10.45;;
38785;SDS011;24535;45.508;12.252;2024-01-10T11:29:39;14.80;;;10.40;;
38785;SDS011;24535;45.508;12.252;2024-01-10T11:32:06;15.75;;;10.20;;
38785;SDS011;24535;45.508;12.252;2024-01-10T11:35:04;14.80;;;9.95;;
38785;SDS011;24535;45.508;12.252;2024-01-10T11:38:11;12.50;;;9.27;;
38785;SDS011;24535;45.508;12.252;2024-01-10T11:40:46;13.90;;;9.63;;
38785;SDS011;24535;45.508;12.252;2024-01-10T11:43:15;17.02;;;9.93;;
38785;SDS011;24535;45.508;12.252;2024-01-10T11:45:51;13.13;;;9.38;;
38785;SDS011;24535;45.508;12.252;2024-01-10T11:48:25;12.20;;;9.57;;
38785;SDS011;24535;45.508;12.252;2024-01-10T11:50:52;15.30;;;9.10;;
38785;SDS011;24535;45.508;12.252;2024-01-10T11:53:37;14.52;;;10.57;;
38785;SDS011;24535;45.508;12.252;2024-01-10T11:56:10;14.07;;;9.70;;
38785;SDS011;24535;45.508;12.252;2024-01-10T12:56:33;11.93;;;9.07;;
38785;SDS011;24535;45.508;12.252;2024-01-10T12:58:59;11.70;;;8.93;;
38785;SDS011;24535;45.508;12.252;2024-01-10T13:01:25;13.07;;;8.73;;
38785;SDS011;24535;45.508;12.252;2024-01-10T13:03:51;12.38;;;8.30;;
38785;SDS011;24535;45.508;12.252;2024-01-10T13:06:20;11.38;;;9.23;;
38785;SDS011;24535;45.508;12.252;2024-01-10T13:08:51;14.98;;;9.02;;
38785;SDS011;24535;45.508;12.252;2024-01-10T13:11:17;12.07;;;8.90;;
38785;SDS011;24535;45.508;12.252;2024-01-10T13:13:45;12.75;;;8.73;;
38785;SDS011;24535;45.508;12.252;2024-01-10T13:16:26;14.05;;;9.45;;
38785;SDS011;24535;45.508;12.252;2024-01-10T13:19:02;11.45;;;8.48;;
38785;SDS011;24535;45.508;12.252;2024-01-10T13:21:28;10.35;;;8.27;;
38785;SDS011;24535;45.508;12.252;2024-01-10T13:23:56;11.15;;;7.97;;
38785;SDS011;24535;45.508;12.252;2024-01-10T13:26:25;13.00;;;9.43;;
38785;SDS011;24535;45.508;12.252;2024-01-10T13:28:51;13.57;;;8.82;;
38785;SDS011;24535;45.508;12.252;2024-01-10T13:33:50;12.60;;;9.38;;
38785;SDS011;24535;45.508;12.252;2024-01-10T13:36:16;12.05;;;8.57;;
38785;SDS011;24535;45.508;12.252;2024-01-10T13:38:46;11.50;;;8.82;;
38785;SDS011;24535;45.508;12.252;2024-01-10T13:41:12;14.23;;;8.90;;
38785;SDS011;24535;45.508;12.252;2024-01-10T13:43:37;12.63;;;7.72;;
38785;SDS011;24535;45.508;12.252;2024-01-10T13:46:05;11.30;;;8.25;;
38785;SDS011;24535;45.508;12.252;2024-01-10T13:51:26;12.73;;;7.95;;
38785;SDS011;24535;45.508;12.252;2024-01-10T13:54:21;11.40;;;8.27;;
38785;SDS011;24535;45.508;12.252;2024-01-10T13:56:47;11.48;;;9.35;;
38785;SDS011;24535;45.508;12.252;2024-01-10T13:59:13;12.27;;;8.40;;
38785;SDS011;24535;45.508;12.252;2024-01-10T14:01:41;10.18;;;7.63;;
38785;SDS011;24535;45.508;12.252;2024-01-10T14:04:13;10.90;;;8.53;;
38785;SDS011;24535;45.508;12.252;2024-01-10T14:06:38;13.68;;;8.77;;
38785;SDS011;24535;45.508;12.252;2024-01-10T14:09:07;13.02;;;8.63;;
38785;SDS011;24535;45.508;12.252;2024-01-10T14:11:37;9.77;;;7.78;;
38785;SDS011;24535;45.508;12.252;2024-01-10T14:14:06;10.65;;;8.00;;
38785;SDS011;24535;45.508;12.252;2024-01-10T14:16:32;10.48;;;8.23;;
38785;SDS011;24535;45.508;12.252;2024-01-10T14:18:57;12.68;;;8.43;;
38785;SDS011;24535;45.508;12.252;2024-01-10T14:21:30;11.27;;;7.95;;
38785;SDS011;24535;45.508;12.252;2024-01-10T14:23:57;9.25;;;7.72;;
38785;SDS011;24535;45.508;12.252;2024-01-10T14:26:22;12.52;;;8.82;;
38785;SDS011;24535;45.508;12.252;2024-01-10T14:29:00;11.75;;;8.55;;
38785;SDS011;24535;45.508;12.252;2024-01-10T14:31:29;11.02;;;8.35;;
38785;SDS011;24535;45.508;12.252;2024-01-10T14:33:54;10.13;;;7.97;;
38785;SDS011;24535;45.508;12.252;2024-01-10T14:36:27;9.18;;;7.28;;
38785;SDS011;24535;45.508;12.252;2024-01-10T14:38:53;10.90;;;8.35;;
38785;SDS011;24535;45.508;12.252;2024-01-10T14:41:27;12.48;;;9.30;;
38785;SDS011;24535;45.508;12.252;2024-01-10T15:07:48;9.55;;;7.20;;
38785;SDS011;24535;45.508;12.252;2024-01-10T15:10:22;10.77;;;7.78;;
38785;SDS011;24535;45.508;12.252;2024-01-10T15:12:48;9.57;;;7.85;;
38785;SDS011;24535;45.508;12.252;2024-01-10T15:15:13;13.65;;;8.18;;
38785;SDS011;24535;45.508;12.252;2024-01-10T15:17:44;10.63;;;8.02;;
38785;SDS011;24535;45.508;12.252;2024-01-10T15:20:10;10.00;;;7.47;;
38785;SDS011;24535;45.508;12.252;2024-01-10T15:22:35;12.60;;;7.30;;
38785;SDS011;24535;45.508;12.252;2024-01-10T15:25:03;10.75;;;7.70;;
38785;SDS011;24535;45.508;12.252;2024-01-10T15:27:32;10.57;;;7.50;;
38785;SDS011;24535;45.508;12.252;2024-01-10T15:29:58;9.80;;;7.60;;
38785;SDS011;24535;45.508;12.252;2024-01-10T15:32:24;9.80;;;7.32;;
38785;SDS011;24535;45.508;12.252;2024-01-10T15:34:50;12.07;;;8.43;;
38785;SDS011;24535;45.508;12.252;2024-01-10T15:37:18;10.50;;;7.35;;
38785;SDS011;24535;45.508;12.252;2024-01-10T15:39:57;8.27;;;7.43;;
38785;SDS011;24535;45.508;12.252;2024-01-10T16:02:00;13.00;;;8.45;;
38785;SDS011;24535;45.508;12.252;2024-01-10T16:04:44;14.32;;;8.75;;
38785;SDS011;24535;45.508;12.252;2024-01-10T16:07:10;10.32;;;8.02;;
38785;SDS011;24535;45.508;12.252;2024-01-10T16:09:38;13.93;;;8.65;;
38785;SDS011;24535;45.508;12.252;2024-01-10T16:45:05;10.90;;;8.45;;
38785;SDS011;24535;45.508;12.252;2024-01-10T16:48:11;13.15;;;9.45;;
38785;SDS011;24535;45.508;12.252;2024-01-10T16:50:43;10.68;;;8.70;;
38785;SDS011;24535;45.508;12.252;2024-01-10T16:53:25;13.18;;;9.52;;
38785;SDS011;24535;45.508;12.252;2024-01-10T16:55:53;15.98;;;10.77;;
38785;SDS011;24535;45.508;12.252;2024-01-10T17:01:01;14.27;;;10.25;;
38785;SDS011;24535;45.508;12.252;2024-01-10T17:03:41;14.88;;;11.05;;
38785;SDS011;24535;45.508;12.252;2024-01-10T17:06:08;13.95;;;9.75;;
38785;SDS011;24535;45.508;12.252;2024-01-10T17:13:44;16.33;;;10.52;;
38785;SDS011;24535;45.508;12.252;2024-01-10T17:16:10;13.70;;;9.77;;
38785;SDS011;24535;45.508;12.252;2024-01-10T17:18:35;12.07;;;8.57;;
38785;SDS011;24535;45.508;12.252;2024-01-10T17:21:12;14.27;;;9.80;;
38785;SDS011;24535;45.508;12.252;2024-01-10T17:24:00;16.05;;;10.30;;
38785;SDS011;24535;45.508;12.252;2024-01-10T17:35:21;10.82;;;8.27;;
38785;SDS011;24535;45.508;12.252;2024-01-10T17:51:45;11.73;;;8.95;;
38785;SDS011;24535;45.508;12.252;2024-01-10T19:28:16;17.30;;;13.80;;
38785;SDS011;24535;45.508;12.252;2024-01-10T19:30:57;20.85;;;14.65;;
38785;SDS011;24535;45.508;12.252;2024-01-10T19:39:05;17.42;;;13.82;;
38785;SDS011;24535;45.508;12.252;2024-01-10T19:41:35;19.42;;;13.98;;
38785;SDS011;24535;45.508;12.252;2024-01-10T19:44:00;20.30;;;15.15;;
38785;SDS011;24535;45.508;12.252;2024-01-10T19:46:59;17.88;;;13.95;;
38785;SDS011;24535;45.508;12.252;2024-01-10T19:54:27;24.88;;;16.45;;
38785;SDS011;24535;45.508;12.252;2024-01-10T19:57:33;21.27;;;15.95;;
38785;SDS011;24535;45.508;12.252;2024-01-10T20:00:08;25.17;;;16.20;;
38785;SDS011;24535;45.508;12.252;2024-01-10T20:06:12;21.50;;;16.98;;
38785;SDS011;24535;45.508;12.252;2024-01-10T20:08:39;24.48;;;16.85;;
38785;SDS011;24535;45.508;12.252;2024-01-10T20:11:05;24.20;;;16.77;;
38785;SDS011;24535;45.508;12.252;2024-01-10T20:18:45;23.17;;;16.35;;
38785;SDS011;24535;45.508;12.252;2024-01-10T20:21:52;23.23;;;16.42;;
38785;SDS011;24535;45.508;12.252;2024-01-10T20:30:35;22.00;;;16.60;;
38785;SDS011;24535;45.508;12.252;2024-01-10T20:33:15;22.98;;;16.83;;
38785;SDS011;24535;45.508;12.252;2024-01-10T21:19:45;21.40;;;17.00;;
38785;SDS011;24535;45.508;12.252;2024-01-10T21:43:09;28.05;;;20.08;;
38785;SDS011;24535;45.508;12.252;2024-01-10T22:01:15;26.17;;;18.20;;
38785;SDS011;24535;45.508;12.252;2024-01-10T22:04:18;27.77;;;18.83;;
38785;SDS011;24535;45.508;12.252;2024-01-10T22:15:09;34.35;;;23.88;;
38785;SDS011;24535;45.508;12.252;2024-01-10T22:27:58;29.10;;;22.20;;
38785;SDS011;24535;45.508;12.252;2024-01-10T22:39:30;35.28;;;24.08;;
38785;SDS011;24535;45.508;12.252;2024-01-10T22:47:17;28.52;;;21.52;;
38785;SDS011;24535;45.508;12.252;2024-01-10T22:49:53;27.33;;;20.80;;
38785;SDS011;24535;45.508;12.252;2024-01-10T22:58:03;33.85;;;22.85;;
38785;SDS011;24535;45.508;12.252;2024-01-10T23:00:39;35.72;;;22.90;;
38785;SDS011;24535;45.508;12.252;2024-01-10T23:03:10;32.13;;;21.60;;
38785;SDS011;24535;45.508;12.252;2024-01-10T23:05:36;36.08;;;22.85;;
38785;SDS011;24535;45.508;12.252;2024-01-10T23:23:51;30.05;;;22.08;;
38785;SDS011;24535;45.508;12.252;2024-01-10T23:48:06;22.27;;;14.95;;
38785;SDS011;24535;45.508;12.252;2024-01-10T23:53:07;18.63;;;14.95;;
38785;SDS011;24535;45.508;12.252;2024-01-10T23:55:47;18.45;;;14.60;;